createdAt,value
2023-03-15T00:00:57.454Z,55.46
2023-03-15T00:03:26.982Z,55.67
2023-03-15T00:05:55.041Z,55.66
2023-03-15T00:08:23.059Z,55.54
2023-03-15T00:10:51.143Z,55.83
2023-03-15T00:13:19.192Z,56.08
2023-03-15T00:15:48.831Z,56.68
2023-03-15T00:18:18.193Z,56.52
2023-03-15T00:20:48.356Z,56.42
2023-03-15T00:23:17.342Z,56.18
2023-03-15T00:25:46.306Z,56.43
2023-03-15T00:28:15.054Z,56.58
2023-03-15T00:30:43.713Z,56.68
2023-03-15T00:33:14.203Z,56.59
2023-03-15T00:35:44.966Z,56.74
2023-03-15T00:38:14.828Z,56.71
2023-03-15T00:40:43.544Z,57.00
2023-03-15T00:43:11.553Z,57.23
2023-03-15T00:45:39.909Z,57.48
2023-03-15T00:48:08.030Z,57.38
2023-03-15T00:50:36.321Z,57.25
2023-03-15T00:53:04.406Z,57.00
2023-03-15T00:55:33.795Z,57.09
2023-03-15T00:58:01.842Z,57.03
2023-03-15T01:00:30.100Z,56.90
2023-03-15T01:02:58.282Z,56.79
2023-03-15T01:05:26.986Z,56.99
2023-03-15T01:07:55.104Z,57.02
2023-03-15T01:10:23.235Z,57.24
2023-03-15T01:12:52.629Z,57.44
2023-03-15T01:15:20.797Z,57.55
2023-03-15T01:17:48.870Z,57.55
2023-03-15T01:20:17.317Z,57.64
2023-03-15T01:22:45.434Z,57.87
2023-03-15T01:25:15.573Z,57.87
2023-03-15T01:27:43.646Z,57.74
2023-03-15T01:30:13.936Z,57.99
2023-03-15T01:32:42.061Z,57.93
2023-03-15T01:35:10.541Z,57.84
2023-03-15T01:37:38.716Z,57.93
2023-03-15T01:40:09.660Z,57.74
2023-03-15T01:42:52.970Z,57.61
2023-03-15T01:46:02.750Z,57.62
2023-03-15T01:48:38.029Z,57.51
2023-03-15T01:51:12.575Z,57.67
2023-03-15T01:53:43.497Z,57.82
2023-03-15T01:56:12.459Z,57.85
2023-03-15T01:58:44.723Z,57.87
2023-03-15T02:01:16.237Z,57.69
2023-03-15T02:03:51.781Z,57.72
2023-03-15T02:06:23.290Z,57.71
2023-03-15T02:09:01.075Z,57.80
2023-03-15T02:11:35.836Z,57.74
2023-03-15T02:14:07.106Z,57.59
2023-03-15T02:16:42.105Z,57.39
2023-03-15T02:19:26.753Z,56.85
2023-03-15T02:22:02.508Z,56.86
2023-03-15T02:24:39.125Z,56.81
2023-03-15T02:27:07.950Z,56.96
2023-03-15T02:29:37.517Z,56.93
2023-03-15T02:32:06.074Z,56.95
2023-03-15T02:34:34.151Z,56.75
2023-03-15T02:37:04.395Z,56.66
2023-03-15T02:39:32.414Z,56.64
2023-03-15T02:42:01.968Z,56.64
2023-03-15T02:44:33.737Z,56.40
2023-03-15T02:47:07.390Z,56.16
2023-03-15T02:49:40.728Z,56.16
2023-03-15T02:52:10.156Z,56.19
2023-03-15T02:54:39.386Z,56.36
2023-03-15T02:57:09.633Z,56.45
2023-03-15T02:59:38.000Z,56.28
2023-03-15T03:02:07.964Z,56.13
2023-03-15T03:04:36.082Z,56.03
2023-03-15T03:07:04.227Z,56.01
2023-03-15T03:09:39.988Z,55.93
2023-03-15T03:12:09.073Z,55.85
2023-03-15T03:14:37.178Z,55.74
2023-03-15T03:17:10.697Z,55.84
2023-03-15T03:19:40.162Z,55.94
2023-03-15T03:22:08.490Z,55.97
2023-03-15T03:24:36.597Z,55.97
2023-03-15T03:27:05.006Z,55.97
2023-03-15T03:29:36.442Z,56.10
2023-03-15T03:32:06.566Z,56.60
2023-03-15T03:34:36.106Z,56.84
2023-03-15T03:37:04.615Z,56.90
2023-03-15T03:39:49.702Z,56.54
2023-03-15T03:42:18.022Z,56.32
2023-03-15T03:44:46.109Z,56.05
2023-03-15T03:47:14.532Z,55.79
2023-03-15T03:49:43.920Z,55.61
2023-03-15T03:52:12.106Z,55.56
2023-03-15T03:54:40.143Z,55.53
2023-03-15T03:57:09.134Z,55.47
2023-03-15T03:59:37.538Z,55.49
2023-03-15T04:02:06.919Z,55.49
2023-03-15T04:04:36.298Z,55.63
2023-03-15T04:07:07.571Z,55.73
2023-03-15T04:09:38.330Z,55.78
2023-03-15T04:12:07.652Z,55.77
2023-03-15T04:14:37.760Z,55.69
2023-03-15T04:17:09.521Z,55.74
2023-03-15T04:19:38.748Z,56.06
2023-03-15T04:22:10.384Z,56.38
2023-03-15T04:24:56.813Z,56.49
2023-03-15T04:27:43.659Z,56.39
2023-03-15T04:30:31.395Z,56.40
2023-03-15T04:33:16.076Z,56.63
2023-03-15T04:36:07.146Z,56.45
2023-03-15T04:38:48.675Z,56.28
2023-03-15T04:41:36.588Z,56.13
2023-03-15T04:44:27.855Z,56.23
2023-03-15T04:47:22.750Z,56.41
2023-03-15T04:50:01.697Z,56.36
2023-03-15T04:52:52.727Z,56.41
2023-03-15T04:55:42.435Z,56.22
2023-03-15T04:58:36.628Z,56.29
2023-03-15T05:01:17.960Z,56.09
2023-03-15T05:04:12.012Z,55.81
2023-03-15T05:07:15.491Z,55.03
2023-03-15T05:10:06.732Z,54.47
2023-03-15T05:12:36.210Z,53.81
2023-03-15T05:15:22.801Z,53.52
2023-03-15T05:17:55.222Z,52.99
2023-03-15T05:20:29.436Z,53.07
2023-03-15T05:23:11.790Z,52.95
2023-03-15T05:25:58.146Z,52.73
2023-03-15T05:28:52.489Z,52.81
2023-03-15T05:31:20.991Z,52.92
2023-03-15T05:33:55.092Z,52.98
2023-03-15T05:36:46.495Z,53.19
2023-03-15T05:39:34.736Z,53.20
2023-03-15T05:42:11.668Z,53.07
2023-03-15T05:45:11.420Z,53.01
2023-03-15T05:47:57.674Z,53.45
2023-03-15T05:50:34.991Z,53.67
2023-03-15T05:53:22.609Z,54.17
2023-03-15T05:56:10.951Z,54.11
2023-03-15T05:58:57.348Z,54.21
2023-03-15T06:01:39.226Z,54.07
2023-03-15T06:04:15.311Z,54.05
2023-03-15T06:06:43.498Z,54.08
2023-03-15T06:09:12.928Z,54.01
2023-03-15T06:11:41.097Z,53.77
2023-03-15T06:14:12.933Z,53.61
2023-03-15T06:16:57.733Z,53.47
2023-03-15T06:19:27.372Z,53.36
2023-03-15T06:21:56.371Z,53.30
2023-03-15T06:24:31.329Z,53.60
2023-03-15T06:26:59.533Z,53.68
2023-03-15T06:29:27.799Z,53.83
2023-03-15T06:31:59.412Z,53.83
2023-03-15T06:34:28.811Z,53.80
2023-03-15T06:36:57.094Z,53.64
2023-03-15T06:39:25.177Z,53.53
2023-03-15T06:41:57.365Z,53.33
2023-03-15T06:44:27.262Z,53.33
2023-03-15T06:47:00.673Z,53.30
2023-03-15T06:49:28.821Z,53.41
2023-03-15T06:51:57.226Z,53.42
2023-03-15T06:54:25.597Z,53.50
2023-03-15T06:56:53.779Z,53.83
2023-03-15T06:59:21.825Z,53.87
2023-03-15T07:01:50.121Z,54.09
2023-03-15T07:04:19.662Z,54.23
2023-03-15T07:06:47.770Z,54.32
2023-03-15T07:09:15.777Z,54.31
2023-03-15T07:11:44.075Z,54.24
2023-03-15T07:14:12.197Z,54.17
2023-03-15T07:16:40.284Z,54.13
2023-03-15T07:19:08.371Z,54.05
2023-03-15T07:21:37.829Z,54.12
2023-03-15T07:24:06.368Z,54.30
2023-03-15T07:26:34.469Z,54.08
2023-03-15T07:29:02.556Z,54.13
2023-03-15T07:31:30.541Z,54.00
2023-03-15T07:33:58.631Z,53.78
2023-03-15T07:36:26.755Z,53.14
2023-03-15T07:38:56.148Z,52.07
2023-03-15T07:41:24.197Z,50.97
2023-03-15T07:44:07.445Z,50.14
2023-03-15T07:46:35.609Z,49.37
2023-03-15T07:49:03.703Z,49.01
2023-03-15T07:51:32.170Z,48.54
2023-03-15T07:54:01.593Z,48.44
2023-03-15T07:56:29.698Z,48.64
2023-03-15T07:58:57.747Z,48.63
2023-03-15T08:01:25.727Z,48.93
2023-03-15T08:03:53.758Z,48.52
2023-03-15T08:06:21.846Z,48.57
2023-03-15T08:08:49.838Z,48.59
2023-03-15T08:11:19.504Z,48.50
2023-03-15T08:13:47.959Z,48.62
2023-03-15T08:16:16.072Z,48.86
2023-03-15T08:18:44.199Z,49.64
2023-03-15T08:21:12.188Z,48.89
2023-03-15T08:23:40.596Z,48.24
2023-03-15T08:26:08.735Z,47.45
2023-03-15T08:28:38.111Z,46.73
2023-03-15T08:31:08.797Z,46.45
2023-03-15T08:33:36.965Z,46.42
2023-03-15T08:36:05.309Z,46.51
2023-03-15T08:38:33.364Z,47.40
2023-03-15T08:41:01.480Z,47.05
2023-03-15T08:43:29.516Z,47.26
2023-03-15T08:46:01.721Z,46.76
2023-03-15T08:48:30.261Z,46.12
2023-03-15T08:51:02.378Z,46.60
2023-03-15T08:53:30.624Z,45.61
2023-03-15T08:55:58.993Z,45.21
2023-03-15T08:58:27.036Z,44.62
2023-03-15T09:00:55.026Z,44.86
2023-03-15T09:03:24.450Z,44.87
2023-03-15T09:05:57.400Z,44.45
2023-03-15T09:08:26.294Z,44.32
2023-03-15T09:10:55.846Z,45.62
2023-03-15T09:13:24.282Z,45.45
2023-03-15T09:15:52.751Z,45.38
2023-03-15T09:18:21.491Z,45.23
2023-03-15T09:20:50.990Z,44.93
2023-03-15T09:23:19.027Z,43.72
2023-03-15T09:25:47.109Z,42.48
2023-03-15T09:28:15.170Z,41.64
2023-03-15T09:30:43.993Z,40.57
2023-03-15T09:33:14.674Z,40.52
2023-03-15T09:35:43.073Z,40.70
2023-03-15T09:38:12.818Z,40.79
2023-03-15T09:40:45.041Z,40.36
2023-03-15T09:43:38.968Z,40.17
2023-03-15T09:46:18.145Z,39.60
2023-03-15T09:48:53.416Z,39.85
2023-03-15T09:51:37.228Z,41.21
2023-03-15T09:54:12.264Z,42.29
2023-03-15T09:56:45.661Z,42.59
2023-03-15T09:59:16.387Z,43.19
2023-03-15T10:01:45.295Z,43.46
2023-03-15T10:04:20.156Z,43.96
2023-03-15T10:06:54.777Z,44.20
2023-03-15T10:09:26.763Z,44.66
2023-03-15T10:12:03.795Z,46.89
2023-03-15T10:14:44.759Z,44.88
2023-03-15T10:17:14.562Z,44.48
2023-03-15T10:19:51.075Z,42.62
2023-03-15T10:22:25.845Z,40.87
2023-03-15T10:25:00.757Z,39.93
2023-03-15T10:27:35.886Z,40.21
2023-03-15T10:30:14.216Z,40.30
2023-03-15T10:32:45.976Z,39.94
2023-03-15T10:35:16.627Z,39.68
2023-03-15T10:37:45.086Z,40.10
2023-03-15T10:40:16.706Z,39.95
2023-03-15T10:42:46.286Z,40.48
2023-03-15T10:45:21.857Z,40.65
2023-03-15T10:47:59.605Z,40.78
2023-03-15T10:50:30.299Z,41.29
2023-03-15T10:52:59.695Z,42.52
2023-03-15T10:55:34.816Z,43.05
2023-03-15T10:58:20.164Z,43.32
2023-03-15T11:00:51.806Z,43.03
2023-03-15T11:03:21.694Z,43.32
2023-03-15T11:05:52.020Z,42.71
2023-03-15T11:08:22.101Z,43.06
2023-03-15T11:10:57.604Z,42.91
2023-03-15T11:13:27.214Z,44.05
2023-03-15T11:16:03.859Z,43.38
2023-03-15T11:18:37.041Z,40.01
2023-03-15T11:21:09.869Z,40.75
2023-03-15T11:23:40.320Z,36.89
2023-03-15T11:26:29.451Z,32.92
2023-03-15T11:29:02.540Z,33.01
2023-03-15T11:31:32.282Z,33.28
2023-03-15T11:34:04.491Z,34.08
2023-03-15T11:36:35.899Z,34.42
2023-03-15T11:39:05.789Z,35.77
2023-03-15T11:41:41.073Z,35.89
2023-03-15T11:44:18.053Z,36.66
2023-03-15T11:46:51.124Z,33.51
2023-03-15T11:49:24.968Z,32.42
2023-03-15T11:51:56.844Z,27.18
2023-03-15T11:54:27.769Z,25.26
2023-03-15T11:56:59.183Z,25.10
2023-03-15T11:59:29.875Z,25.74
2023-03-15T12:02:00.458Z,26.87
2023-03-15T12:04:45.101Z,23.76
2023-03-15T12:07:57.526Z,23.77
2023-03-15T12:10:46.520Z,22.76
2023-03-15T12:13:26.641Z,23.75
2023-03-15T12:15:55.797Z,24.33
2023-03-15T12:18:32.394Z,23.66
2023-03-15T12:21:16.339Z,22.16
2023-03-15T12:23:57.940Z,21.44
2023-03-15T12:26:32.184Z,21.14
2023-03-15T12:29:23.451Z,21.63
2023-03-15T12:31:55.640Z,23.50
2023-03-15T12:34:37.330Z,22.27
2023-03-15T12:37:09.856Z,21.98
2023-03-15T12:39:45.935Z,20.13
2023-03-15T12:42:36.196Z,19.34
2023-03-15T12:45:37.684Z,20.70
2023-03-15T12:48:25.896Z,18.86
2023-03-15T12:50:59.974Z,18.03
2023-03-15T12:53:49.046Z,19.67
2023-03-15T12:56:32.829Z,19.41
2023-03-15T12:59:07.120Z,19.47
2023-03-15T13:01:36.956Z,20.67
2023-03-15T13:04:05.629Z,21.48
2023-03-15T13:06:46.464Z,20.97
2023-03-15T13:09:27.323Z,21.56
2023-03-15T13:12:02.444Z,19.15
2023-03-15T13:14:43.111Z,19.86
2023-03-15T13:17:28.206Z,18.56
2023-03-15T13:20:18.938Z,17.22
2023-03-15T13:22:56.003Z,17.44
2023-03-15T13:25:31.833Z,18.98
2023-03-15T13:28:04.072Z,20.37
2023-03-15T13:30:35.708Z,19.85
2023-03-15T13:33:21.614Z,19.12
2023-03-15T13:35:56.412Z,20.53
2023-03-15T13:38:31.514Z,20.47
2023-03-15T13:41:01.964Z,21.53
2023-03-15T13:43:33.206Z,21.76
2023-03-15T13:46:02.301Z,20.29
2023-03-15T13:48:34.220Z,19.26
2023-03-15T13:51:06.274Z,19.03
2023-03-15T13:53:49.180Z,18.41
2023-03-15T13:56:21.214Z,19.36
2023-03-15T13:58:52.074Z,18.43
2023-03-15T14:01:23.225Z,18.45
2023-03-15T14:03:58.258Z,18.89
2023-03-15T14:06:28.248Z,19.30
2023-03-15T14:09:01.991Z,18.63
2023-03-15T14:11:37.481Z,20.15
2023-03-15T14:14:23.262Z,19.20
2023-03-15T14:17:04.231Z,20.51
2023-03-15T14:19:37.020Z,20.64
2023-03-15T14:22:15.567Z,18.46
2023-03-15T14:24:46.050Z,17.64
2023-03-15T14:27:18.416Z,19.19
2023-03-15T14:29:49.802Z,20.63
2023-03-15T14:32:30.898Z,20.73
2023-03-15T14:35:08.085Z,22.11
2023-03-15T14:37:42.040Z,21.35
2023-03-15T14:40:18.369Z,21.64
2023-03-15T14:42:50.496Z,21.49
2023-03-15T14:45:22.173Z,21.60
2023-03-15T14:47:57.249Z,21.09
2023-03-15T14:50:29.342Z,21.72
2023-03-15T14:52:59.502Z,23.02
2023-03-15T14:55:33.536Z,23.30
2023-03-15T14:58:02.210Z,22.84
2023-03-15T15:00:31.271Z,22.00
2023-03-15T15:03:00.118Z,22.47
2023-03-15T15:05:31.889Z,21.99
2023-03-15T15:08:05.426Z,22.11
2023-03-15T15:10:34.976Z,22.56
2023-03-15T15:13:06.869Z,23.06
2023-03-15T15:15:51.769Z,22.16
2023-03-15T15:18:23.750Z,22.80
2023-03-15T15:20:56.126Z,22.50
2023-03-15T15:23:27.287Z,22.48
2023-03-15T15:25:59.205Z,22.06
2023-03-15T15:28:35.349Z,22.47
2023-03-15T15:31:08.199Z,22.88
2023-03-15T15:33:36.741Z,22.88
2023-03-15T15:36:12.422Z,23.14
2023-03-15T15:38:41.253Z,23.21
2023-03-15T15:41:17.128Z,22.31
2023-03-15T15:43:45.396Z,22.55
2023-03-15T15:46:13.908Z,22.95
2023-03-15T15:48:42.764Z,23.61
2023-03-15T15:51:22.860Z,23.55
2023-03-15T15:53:51.871Z,24.34
2023-03-15T15:56:20.305Z,22.63
2023-03-15T15:58:49.982Z,22.22
2023-03-15T16:01:18.270Z,22.91
2023-03-15T16:03:46.579Z,24.09
2023-03-15T16:06:21.784Z,24.41
2023-03-15T16:08:53.692Z,24.49
2023-03-15T16:11:22.772Z,24.20
2023-03-15T16:13:54.041Z,24.65
2023-03-15T16:16:22.837Z,24.93
2023-03-15T16:18:51.246Z,25.06
2023-03-15T16:21:28.937Z,25.06
2023-03-15T16:24:00.611Z,25.79
2023-03-15T16:26:29.240Z,25.65
2023-03-15T16:28:57.516Z,25.74
2023-03-15T16:31:25.976Z,25.52
2023-03-15T16:33:54.270Z,26.11
2023-03-15T16:36:25.396Z,26.59
2023-03-15T16:38:53.678Z,27.02
2023-03-15T16:41:22.014Z,27.15
2023-03-15T16:43:50.278Z,27.78
2023-03-15T16:46:19.075Z,28.03
2023-03-15T16:48:47.449Z,28.52
2023-03-15T16:51:17.379Z,28.99
2023-03-15T16:53:47.084Z,29.30
2023-03-15T16:56:16.483Z,29.65
2023-03-15T16:58:45.922Z,30.19
2023-03-15T17:01:14.183Z,30.67
2023-03-15T17:03:42.856Z,31.25
2023-03-15T17:06:20.245Z,31.54
2023-03-15T17:08:50.851Z,32.22
2023-03-15T17:11:19.618Z,32.71
2023-03-15T17:13:48.423Z,33.12
2023-03-15T17:16:17.131Z,33.34
2023-03-15T17:18:47.744Z,33.51
2023-03-15T17:21:19.778Z,33.86
2023-03-15T17:23:50.706Z,34.03
2023-03-15T17:26:21.019Z,34.37
2023-03-15T17:28:51.010Z,34.55
2023-03-15T17:31:25.560Z,34.75
2023-03-15T17:33:54.590Z,35.00
2023-03-15T17:36:24.931Z,35.37
2023-03-15T17:38:55.241Z,35.46
2023-03-15T17:41:26.107Z,35.68
2023-03-15T17:43:54.847Z,35.83
2023-03-15T17:46:29.947Z,35.85
2023-03-15T17:48:59.371Z,35.88
2023-03-15T17:51:30.329Z,35.89
2023-03-15T17:54:00.751Z,35.85
2023-03-15T17:56:30.113Z,35.79
2023-03-15T17:58:58.884Z,35.82
2023-03-15T18:01:29.182Z,36.20
2023-03-15T18:03:58.520Z,36.28
2023-03-15T18:06:26.922Z,36.46
2023-03-15T18:08:55.228Z,36.67
2023-03-15T18:11:28.460Z,36.77
2023-03-15T18:13:57.222Z,36.98
2023-03-15T18:16:25.842Z,37.08
2023-03-15T18:18:54.178Z,37.33
2023-03-15T18:21:24.450Z,37.62
2023-03-15T18:23:53.149Z,37.62
2023-03-15T18:26:22.890Z,37.64
2023-03-15T18:28:52.931Z,37.75
2023-03-15T18:31:52.846Z,37.75
2023-03-15T18:34:22.005Z,38.00
2023-03-15T18:36:50.142Z,38.17
2023-03-15T18:39:18.658Z,38.27
2023-03-15T18:41:46.878Z,38.40
2023-03-15T18:44:16.283Z,38.54
2023-03-15T18:46:48.054Z,38.93
2023-03-15T18:49:16.138Z,39.21
2023-03-15T18:51:44.284Z,39.37
2023-03-15T18:54:12.347Z,39.46
2023-03-15T18:56:40.457Z,39.49
2023-03-15T18:59:08.822Z,39.74
2023-03-15T19:01:38.424Z,39.85
2023-03-15T19:04:06.623Z,40.10
2023-03-15T19:06:34.964Z,40.34
2023-03-15T19:09:03.039Z,40.46
2023-03-15T19:11:31.745Z,40.57
2023-03-15T19:13:59.987Z,40.55
2023-03-15T19:16:30.568Z,40.65
2023-03-15T19:19:00.124Z,40.81
2023-03-15T19:21:28.446Z,40.92
2023-03-15T19:23:58.158Z,40.99
2023-03-15T19:26:26.627Z,41.11
2023-03-15T19:28:56.219Z,41.20
2023-03-15T19:31:24.508Z,41.23
2023-03-15T19:33:52.694Z,41.39
2023-03-15T19:36:24.066Z,41.58
2023-03-15T19:38:52.153Z,41.83
2023-03-15T19:41:20.207Z,42.04
2023-03-15T19:43:48.219Z,42.08
2023-03-15T19:46:17.356Z,42.19
2023-03-15T19:48:45.452Z,42.39
2023-03-15T19:51:13.494Z,42.58
2023-03-15T19:53:42.952Z,42.74
2023-03-15T19:56:11.582Z,42.79
2023-03-15T19:58:39.629Z,42.82
2023-03-15T20:01:07.726Z,42.90
2023-03-15T20:03:35.830Z,43.00
2023-03-15T20:06:08.991Z,43.02
2023-03-15T20:08:37.120Z,43.15
2023-03-15T20:11:07.769Z,43.36
2023-03-15T20:13:36.911Z,43.39
2023-03-15T20:16:05.843Z,43.68
2023-03-15T20:18:33.981Z,43.74
2023-03-15T20:21:02.069Z,44.22
2023-03-15T20:23:30.117Z,44.76
2023-03-15T20:26:09.829Z,44.52
2023-03-15T20:28:38.498Z,44.79
2023-03-15T20:31:08.534Z,44.99
2023-03-15T20:33:36.900Z,44.97
2023-03-15T20:36:05.880Z,45.14
2023-03-15T20:38:34.700Z,45.06
2023-03-15T20:41:02.747Z,45.15
2023-03-15T20:43:32.957Z,45.41
2023-03-15T20:46:03.103Z,45.42
2023-03-15T20:48:33.163Z,45.50
2023-03-15T20:51:03.779Z,45.60
2023-03-15T20:53:33.168Z,45.76
2023-03-15T20:56:01.751Z,45.88
2023-03-15T20:58:29.895Z,45.81
2023-03-15T21:01:05.629Z,45.69
2023-03-15T21:03:35.342Z,45.77
2023-03-15T21:06:04.519Z,45.80
2023-03-15T21:08:33.266Z,45.89
2023-03-15T21:11:01.538Z,45.86
2023-03-15T21:13:29.707Z,46.04
2023-03-15T21:15:58.032Z,46.28
2023-03-15T21:18:27.522Z,46.42
2023-03-15T21:21:00.376Z,46.39
2023-03-15T21:23:31.220Z,46.54
2023-03-15T21:26:00.282Z,46.52
2023-03-15T21:28:28.933Z,46.90
2023-03-15T21:30:57.230Z,47.07
2023-03-15T21:33:28.896Z,46.93
2023-03-15T21:35:58.955Z,46.64
2023-03-15T21:38:27.799Z,46.64
2023-03-15T21:40:59.316Z,46.73
2023-03-15T21:43:28.112Z,46.51
2023-03-15T21:45:56.308Z,46.39
2023-03-15T21:48:24.634Z,46.47
2023-03-15T21:50:54.331Z,46.53
2023-03-15T21:53:22.861Z,46.50
2023-03-15T21:55:50.926Z,46.41
2023-03-15T21:58:19.091Z,46.50
2023-03-15T22:00:47.091Z,46.70
2023-03-15T22:03:17.842Z,46.75
2023-03-15T22:05:46.809Z,46.87
2023-03-15T22:08:16.281Z,47.23
2023-03-15T22:10:44.304Z,47.10
2023-03-15T22:13:12.392Z,47.06
2023-03-15T22:15:40.416Z,47.05
2023-03-15T22:18:08.576Z,46.95
2023-03-15T22:20:36.648Z,46.74
2023-03-15T22:23:04.986Z,46.61
2023-03-15T22:25:34.784Z,46.80
2023-03-15T22:28:02.933Z,46.82
2023-03-15T22:30:31.455Z,46.63
2023-03-15T22:32:59.769Z,46.52
2023-03-15T22:35:28.011Z,46.38
2023-03-15T22:37:57.074Z,46.33
2023-03-15T22:40:26.398Z,46.31
2023-03-15T22:42:57.496Z,46.35
2023-03-15T22:45:26.087Z,46.29
2023-03-15T22:47:54.151Z,46.31
2023-03-15T22:50:22.232Z,46.50
2023-03-15T22:52:51.824Z,46.34
2023-03-15T22:55:20.707Z,46.22
2023-03-15T22:57:48.922Z,46.31
2023-03-15T23:00:23.190Z,46.23
2023-03-15T23:02:51.852Z,46.28
2023-03-15T23:05:21.236Z,46.33
2023-03-15T23:07:49.264Z,46.31
2023-03-15T23:10:17.519Z,46.25
2023-03-15T23:12:46.041Z,46.22
2023-03-15T23:15:14.804Z,46.40
2023-03-15T23:17:46.482Z,46.30
2023-03-15T23:20:15.764Z,46.28
2023-03-15T23:22:44.479Z,46.28
2023-03-15T23:25:14.181Z,46.15
2023-03-15T23:27:42.637Z,46.14
2023-03-15T23:30:11.781Z,45.93
2023-03-15T23:32:40.088Z,45.81
2023-03-15T23:35:12.611Z,45.92
2023-03-15T23:37:41.041Z,45.73
2023-03-15T23:40:15.224Z,45.65
2023-03-15T23:42:43.942Z,45.51
2023-03-15T23:45:13.315Z,45.33
2023-03-15T23:47:41.496Z,45.15
2023-03-15T23:50:13.718Z,44.95
2023-03-15T23:52:42.314Z,44.87
2023-03-15T23:55:11.493Z,44.74
2023-03-15T23:57:39.607Z,44.62
